Time,TemperatureF,DewpointF,PressureIn,WindDirection,WindDirectionDegrees,WindSpeedMPH,WindSpeedGustMPH,Humidity,HourlyPrecipIn,Conditions,Clouds,dailyrainin,SolarRadiationWatts/m^2,SoftwareType,DateUTC
2014-12-20 00:02:00,30.0,22.8,30.33,WNW,285,2.0,6.0,74,0.00,,,0.00,0.0,meteobridge,2014-12-20 05:02:00,
2014-12-20 00:07:00,30.0,23.0,30.33,NW,326,0.0,3.0,75,0.00,,,0.00,0.0,meteobridge,2014-12-20 05:07:00,
2014-12-20 00:12:00,30.0,23.0,30.33,NW,304,0.0,2.0,75,0.00,,,0.00,0.0,meteobridge,2014-12-20 05:12:00,
2014-12-20 00:18:00,30.0,23.0,30.33,NNW,338,0.0,0.0,75,0.00,,,0.00,0.0,meteobridge,2014-12-20 05:18:00,
2014-12-20 00:23:00,30.0,23.0,30.33,NW,307,2.0,5.0,75,0.00,,,0.00,0.0,meteobridge,2014-12-20 05:23:00,
2014-12-20 00:28:00,30.0,23.0,30.33,NNW,333,0.9,4.0,75,0.00,,,0.00,0.0,meteobridge,2014-12-20 05:28:00,
2014-12-20 00:33:00,30.0,23.0,30.33,NW,309,2.9,8.0,75,0.00,,,0.00,0.0,meteobridge,2014-12-20 05:33:00,
2014-12-20 00:38:00,30.0,23.0,30.32,NW,319,2.9,9.0,75,0.00,,,0.00,0.0,meteobridge,2014-12-20 05:38:00,
2014-12-20 00:43:00,30.0,23.0,30.33,NW,313,4.0,7.0,75,0.00,,,0.00,0.0,meteobridge,2014-12-20 05:43:00,
2014-12-20 00:48:00,30.0,23.0,30.33,WNW,298,2.0,5.0,75,0.00,,,0.00,0.0,meteobridge,2014-12-20 05:48:00,
2014-12-20 00:53:00,30.0,23.4,30.32,North,355,0.0,5.0,76,0.00,,,0.00,0.0,meteobridge,2014-12-20 05:53:00,
2014-12-20 00:58:00,30.0,23.4,30.32,NW,311,0.0,3.0,76,0.00,,,0.00,0.0,meteobridge,2014-12-20 05:58:00,
2014-12-20 01:03:00,29.8,23.2,30.33,North,349,0.0,4.0,76,0.00,,,0.00,0.0,meteobridge,2014-12-20 06:03:00,
2014-12-20 01:08:00,29.8,23.2,30.32,NNW,341,0.0,4.0,76,0.00,,,0.00,0.0,meteobridge,2014-12-20 06:08:00,
2014-12-20 01:13:00,29.8,23.2,30.32,NW,313,0.0,4.0,76,0.00,,,0.00,0.0,meteobridge,2014-12-20 06:13:00,
2014-12-20 01:18:00,29.8,23.2,30.33,NW,319,0.0,1.0,76,0.00,,,0.00,0.0,meteobridge,2014-12-20 06:18:00,
2014-12-20 01:23:00,29.7,23.0,30.33,WNW,293,0.0,5.0,76,0.00,,,0.00,0.0,meteobridge,2014-12-20 06:23:00,
2014-12-20 01:28:00,29.7,23.0,30.33,NNW,329,0.0,5.0,76,0.00,,,0.00,0.0,meteobridge,2014-12-20 06:28:00,
2014-12-20 01:33:00,29.7,23.0,30.33,NNW,345,2.0,6.0,76,0.00,,,0.00,0.0,meteobridge,2014-12-20 06:33:00,
2014-12-20 01:38:00,29.7,23.0,30.33,WNW,301,2.9,5.0,76,0.00,,,0.00,0.0,meteobridge,2014-12-20 06:38:00,
2014-12-20 01:43:00,29.7,23.0,30.34,NW,310,0.0,3.0,76,0.00,,,0.00,0.0,meteobridge,2014-12-20 06:43:00,
2014-12-20 01:48:00,29.7,23.0,30.34,NNW,331,0.0,0.0,76,0.00,,,0.00,0.0,meteobridge,2014-12-20 06:48:00,
2014-12-20 01:54:00,29.7,23.0,30.34,NNE,17,2.9,6.0,76,0.00,,,0.00,0.0,meteobridge,2014-12-20 06:54:00,
2014-12-20 01:59:00,29.7,23.0,30.34,NNW,336,0.0,0.0,76,0.00,,,0.00,0.0,meteobridge,2014-12-20 06:59:00,
2014-12-20 02:04:00,29.5,22.8,30.34,NNW,336,0.0,2.0,76,0.00,,,0.00,0.0,meteobridge,2014-12-20 07:04:00,
2014-12-20 02:09:00,29.5,22.8,30.34,NNW,332,0.0,0.0,76,0.00,,,0.00,0.0,meteobridge,2014-12-20 07:09:00,
2014-12-20 02:14:00,29.5,22.8,30.34,North,0,0.0,4.0,76,0.00,,,0.00,0.0,meteobridge,2014-12-20 07:14:00,
2014-12-20 02:20:00,29.5,22.8,30.35,NW,318,2.0,2.0,76,0.00,,,0.00,0.0,meteobridge,2014-12-20 07:20:00,
2014-12-20 02:25:00,29.5,23.2,30.35,NW,320,4.9,5.0,77,0.00,,,0.00,0.0,meteobridge,2014-12-20 07:25:00,
2014-12-20 02:30:00,29.3,23.0,30.35,NW,321,0.9,5.0,77,0.00,,,0.00,0.0,meteobridge,2014-12-20 07:30:00,
2014-12-20 02:35:00,29.3,23.0,30.36,NW,310,0.0,4.0,77,0.00,,,0.00,0.0,meteobridge,2014-12-20 07:35:00,
2014-12-20 02:41:00,29.3,23.0,30.35,NW,310,0.0,0.0,77,0.00,,,0.00,0.0,meteobridge,2014-12-20 07:41:00,
2014-12-20 02:46:00,29.3,23.0,30.35,NW,310,0.0,0.0,77,0.00,,,0.00,0.0,meteobridge,2014-12-20 07:46:00,
2014-12-20 02:51:00,29.1,22.8,30.35,NNW,330,0.0,0.0,77,0.00,,,0.00,0.0,meteobridge,2014-12-20 07:51:00,
2014-12-20 02:56:00,29.1,22.8,30.35,NNW,344,0.0,5.0,77,0.00,,,0.00,0.0,meteobridge,2014-12-20 07:56:00,
2014-12-20 03:01:00,29.1,22.8,30.36,NNW,331,0.0,0.0,77,0.00,,,0.00,0.0,meteobridge,2014-12-20 08:01:00,
2014-12-20 03:06:00,28.9,22.6,30.36,NW,320,0.0,3.0,77,0.00,,,0.00,0.0,meteobridge,2014-12-20 08:06:00,
2014-12-20 03:11:00,28.9,22.6,30.36,NW,307,0.0,0.0,77,0.00,,,0.00,0.0,meteobridge,2014-12-20 08:11:00,
2014-12-20 03:16:00,28.9,22.6,30.36,NNW,347,2.9,6.0,77,0.00,,,0.00,0.0,meteobridge,2014-12-20 08:16:00,
2014-12-20 03:21:00,28.9,23.0,30.36,NNW,327,0.0,0.0,78,0.00,,,0.00,0.0,meteobridge,2014-12-20 08:21:00,
2014-12-20 03:26:00,28.8,22.8,30.36,NNW,329,0.0,0.0,78,0.00,,,0.00,0.0,meteobridge,2014-12-20 08:26:00,
2014-12-20 03:31:00,28.8,22.8,30.36,North,355,2.0,4.0,78,0.00,,,0.00,0.0,meteobridge,2014-12-20 08:31:00,
2014-12-20 03:36:00,28.8,23.0,30.36,North,5,0.0,0.0,79,0.00,,,0.00,0.0,meteobridge,2014-12-20 08:36:00,
2014-12-20 03:41:00,28.8,23.0,30.36,North,0,0.0,0.0,79,0.00,,,0.00,0.0,meteobridge,2014-12-20 08:41:00,
2014-12-20 03:47:00,28.6,22.8,30.36,North,350,0.0,0.0,79,0.00,,,0.00,0.0,meteobridge,2014-12-20 08:47:00,
2014-12-20 03:52:00,28.6,22.8,30.37,North,355,0.0,0.0,79,0.00,,,0.00,0.0,meteobridge,2014-12-20 08:52:00,
2014-12-20 03:57:00,28.6,22.8,30.37,NNW,336,0.0,6.0,79,0.00,,,0.00,0.0,meteobridge,2014-12-20 08:57:00,
2014-12-20 04:02:00,28.4,22.6,30.37,NW,311,0.0,3.0,79,0.00,,,0.00,0.0,meteobridge,2014-12-20 09:02:00,
2014-12-20 04:07:00,28.2,22.6,30.37,NNW,329,0.0,0.0,79,0.00,,,0.00,0.0,meteobridge,2014-12-20 09:07:00,
2014-12-20 04:12:00,28.2,22.6,30.37,NNW,338,0.0,0.0,79,0.00,,,0.00,0.0,meteobridge,2014-12-20 09:12:00,
2014-12-20 04:17:00,28.0,22.6,30.37,North,355,0.0,0.0,80,0.00,,,0.00,0.0,meteobridge,2014-12-20 09:17:00,
2014-12-20 04:22:00,28.0,22.6,30.37,North,355,0.0,0.0,80,0.00,,,0.00,0.0,meteobridge,2014-12-20 09:22:00,
2014-12-20 04:28:00,28.0,22.6,30.38,NNW,345,0.0,0.0,80,0.00,,,0.00,0.0,meteobridge,2014-12-20 09:28:00,
2014-12-20 04:33:00,28.0,22.6,30.38,NNW,345,0.0,0.0,80,0.00,,,0.00,0.0,meteobridge,2014-12-20 09:33:00,
2014-12-20 04:38:00,28.0,22.6,30.39,NNW,345,0.0,0.0,80,0.00,,,0.00,0.0,meteobridge,2014-12-20 09:38:00,
2014-12-20 04:43:00,28.0,22.5,30.38,NNW,330,0.0,0.0,79,0.00,,,0.00,0.0,meteobridge,2014-12-20 09:43:00,
2014-12-20 04:48:00,28.0,22.5,30.39,NNW,329,0.0,0.0,79,0.00,,,0.00,0.0,meteobridge,2014-12-20 09:48:00,
2014-12-20 04:53:00,28.0,22.5,30.39,NNW,331,0.0,0.0,79,0.00,,,0.00,0.0,meteobridge,2014-12-20 09:53:00,
2014-12-20 04:58:00,28.0,22.1,30.39,NNW,331,0.0,0.0,78,0.00,,,0.00,0.0,meteobridge,2014-12-20 09:58:00,
2014-12-20 05:03:00,28.0,22.1,30.39,NNW,331,0.0,0.0,78,0.00,,,0.00,0.0,meteobridge,2014-12-20 10:03:00,
2014-12-20 05:09:00,28.0,22.1,30.39,NNW,331,0.0,0.0,78,0.00,,,0.00,0.0,meteobridge,2014-12-20 10:09:00,
2014-12-20 05:14:00,28.0,22.1,30.39,NNW,331,0.0,0.0,78,0.00,,,0.00,0.0,meteobridge,2014-12-20 10:14:00,
2014-12-20 05:19:00,28.0,22.1,30.39,NNW,331,0.0,0.0,78,0.00,,,0.00,0.0,meteobridge,2014-12-20 10:19:00,
2014-12-20 05:24:00,28.0,22.1,30.39,NNW,338,0.0,0.0,78,0.00,,,0.00,0.0,meteobridge,2014-12-20 10:24:00,
2014-12-20 05:29:00,28.0,22.1,30.39,NNW,340,0.0,0.0,78,0.00,,,0.00,0.0,meteobridge,2014-12-20 10:29:00,
2014-12-20 05:34:00,28.0,22.1,30.39,NNW,344,0.0,0.0,78,0.00,,,0.00,0.0,meteobridge,2014-12-20 10:34:00,
2014-12-20 05:40:00,28.0,22.1,30.40,NNW,344,2.0,3.0,78,0.00,,,0.00,0.0,meteobridge,2014-12-20 10:40:00,
2014-12-20 05:45:00,28.0,22.1,30.40,NNW,344,0.0,0.0,78,0.00,,,0.00,0.0,meteobridge,2014-12-20 10:45:00,
2014-12-20 05:50:00,28.0,22.1,30.40,NNW,335,0.0,0.0,78,0.00,,,0.00,0.0,meteobridge,2014-12-20 10:50:00,
2014-12-20 05:55:00,28.0,21.7,30.40,NNW,338,0.0,3.0,77,0.00,,,0.00,0.0,meteobridge,2014-12-20 10:55:00,
2014-12-20 06:01:00,28.0,21.7,30.40,NNW,338,0.0,0.0,77,0.00,,,0.00,0.0,meteobridge,2014-12-20 11:01:00,
2014-12-20 06:06:00,28.0,21.7,30.40,NNW,330,0.0,3.0,77,0.00,,,0.00,0.0,meteobridge,2014-12-20 11:06:00,
2014-12-20 06:11:00,28.0,21.7,30.40,NNW,330,0.0,0.0,77,0.00,,,0.00,0.0,meteobridge,2014-12-20 11:11:00,
2014-12-20 06:16:00,28.0,21.7,30.40,NNW,329,0.0,0.0,77,0.00,,,0.00,0.0,meteobridge,2014-12-20 11:16:00,
2014-12-20 06:21:00,28.0,21.7,30.40,NNW,329,0.0,0.0,77,0.00,,,0.00,0.0,meteobridge,2014-12-20 11:21:00,
2014-12-20 06:26:00,28.0,21.7,30.40,NNW,329,0.0,0.0,77,0.00,,,0.00,0.0,meteobridge,2014-12-20 11:26:00,
2014-12-20 06:31:00,28.0,21.7,30.40,NNW,328,0.0,0.0,77,0.00,,,0.00,0.0,meteobridge,2014-12-20 11:31:00,
2014-12-20 06:36:00,28.0,21.7,30.40,NNW,329,0.0,0.0,77,0.00,,,0.00,0.0,meteobridge,2014-12-20 11:36:00,
2014-12-20 06:41:00,28.0,21.4,30.40,NW,315,6.9,7.0,76,0.00,,,0.00,0.0,meteobridge,2014-12-20 11:41:00,
2014-12-20 06:47:00,28.0,21.4,30.40,NW,309,0.0,0.0,76,0.00,,,0.00,0.0,meteobridge,2014-12-20 11:47:00,
2014-12-20 06:52:00,28.0,21.2,30.40,NW,312,0.0,0.0,75,0.00,,,0.00,0.0,meteobridge,2014-12-20 11:52:00,
2014-12-20 06:57:00,28.0,21.2,30.40,NNW,329,2.0,2.0,75,0.00,,,0.00,0.0,meteobridge,2014-12-20 11:57:00,
2014-12-20 07:02:00,28.0,21.2,30.40,NW,326,0.0,0.0,75,0.00,,,0.00,0.0,meteobridge,2014-12-20 12:02:00,
2014-12-20 07:07:00,28.0,21.2,30.40,NNW,348,0.0,0.0,75,0.00,,,0.00,0.0,meteobridge,2014-12-20 12:07:00,
2014-12-20 07:12:00,27.9,21.0,30.40,NNW,348,0.0,0.0,75,0.00,,,0.00,0.0,meteobridge,2014-12-20 12:12:00,
2014-12-20 07:18:00,27.9,21.2,30.40,NNW,346,0.0,0.0,76,0.00,,,0.00,0.0,meteobridge,2014-12-20 12:18:00,
2014-12-20 07:23:00,27.9,21.0,30.40,NNW,338,0.0,5.0,75,0.00,,,0.00,0.0,meteobridge,2014-12-20 12:23:00,
2014-12-20 07:28:00,27.9,21.0,30.40,NNW,337,0.0,6.0,75,0.00,,,0.00,0.0,meteobridge,2014-12-20 12:28:00,
2014-12-20 07:33:00,27.9,21.2,30.41,NNW,336,0.0,0.0,76,0.00,,,0.00,0.0,meteobridge,2014-12-20 12:33:00,
2014-12-20 07:38:00,28.0,21.4,30.41,NNW,344,0.0,0.0,76,0.00,,,0.00,5.0,meteobridge,2014-12-20 12:38:00,
2014-12-20 07:43:00,28.0,21.4,30.41,NNW,344,0.0,0.0,76,0.00,,,0.00,7.0,meteobridge,2014-12-20 12:43:00,
2014-12-20 07:48:00,28.0,21.4,30.42,NNW,343,0.0,0.0,76,0.00,,,0.00,9.0,meteobridge,2014-12-20 12:48:00,
2014-12-20 07:54:00,28.0,21.4,30.42,NNW,342,0.0,3.0,76,0.00,,,0.00,11.0,meteobridge,2014-12-20 12:54:00,
2014-12-20 07:59:00,28.0,21.4,30.41,NNW,336,0.0,5.0,76,0.00,,,0.00,12.0,meteobridge,2014-12-20 12:59:00,
2014-12-20 08:04:00,28.0,21.4,30.42,NNW,333,0.0,0.0,76,0.00,,,0.00,14.0,meteobridge,2014-12-20 13:04:00,
2014-12-20 08:09:00,28.0,21.4,30.42,NNW,338,0.0,3.0,76,0.00,,,0.00,16.0,meteobridge,2014-12-20 13:09:00,
2014-12-20 08:14:00,28.0,21.4,30.42,NNW,341,0.0,4.0,76,0.00,,,0.00,16.0,meteobridge,2014-12-20 13:14:00,
2014-12-20 08:19:00,28.0,21.4,30.42,NNW,341,0.0,0.0,76,0.00,,,0.00,19.0,meteobridge,2014-12-20 13:19:00,
2014-12-20 08:24:00,28.0,21.4,30.43,NNW,344,0.0,4.0,76,0.00,,,0.00,21.0,meteobridge,2014-12-20 13:24:00,
2014-12-20 08:29:00,28.2,21.6,30.44,NNW,344,0.0,0.0,76,0.00,,,0.00,25.0,meteobridge,2014-12-20 13:29:00,
2014-12-20 08:34:00,28.2,21.6,30.44,NNW,344,0.0,0.0,76,0.00,,,0.00,23.0,meteobridge,2014-12-20 13:34:00,
2014-12-20 08:39:00,28.2,21.6,30.44,NNW,344,0.0,0.0,76,0.00,,,0.00,25.0,meteobridge,2014-12-20 13:39:00,
2014-12-20 08:44:00,28.2,21.6,30.45,NNW,344,0.0,0.0,76,0.00,,,0.00,23.0,meteobridge,2014-12-20 13:44:00,
2014-12-20 08:50:00,28.2,21.4,30.45,NNW,344,0.0,0.0,75,0.00,,,0.00,25.0,meteobridge,2014-12-20 13:50:00,
2014-12-20 08:55:00,28.4,21.6,30.45,NNW,344,0.0,0.0,75,0.00,,,0.00,32.0,meteobridge,2014-12-20 13:55:00,
2014-12-20 09:00:00,28.4,21.7,30.45,NNW,344,0.0,0.0,76,0.00,,,0.00,32.0,meteobridge,2014-12-20 14:00:00,
2014-12-20 09:05:00,28.4,21.6,30.45,NNW,344,0.0,0.0,75,0.00,,,0.00,33.0,meteobridge,2014-12-20 14:05:00,
2014-12-20 09:10:00,28.4,21.7,30.45,NNW,344,0.0,0.0,76,0.00,,,0.00,42.0,meteobridge,2014-12-20 14:10:00,
2014-12-20 09:15:00,28.4,21.7,30.45,North,0,0.0,3.0,76,0.00,,,0.00,42.0,meteobridge,2014-12-20 14:15:00,
2014-12-20 09:20:00,28.4,21.7,30.45,North,0,0.0,3.0,76,0.00,,,0.00,42.0,meteobridge,2014-12-20 14:20:00,
2014-12-20 09:25:00,28.4,21.7,30.44,North,0,0.0,0.0,76,0.00,,,0.00,46.0,meteobridge,2014-12-20 14:25:00,
2014-12-20 09:30:00,28.4,22.1,30.45,North,0,0.0,0.0,77,0.00,,,0.00,53.0,meteobridge,2014-12-20 14:30:00,
2014-12-20 09:36:00,28.6,21.9,30.45,North,0,0.0,0.0,76,0.00,,,0.00,54.0,meteobridge,2014-12-20 14:36:00,
2014-12-20 09:41:00,28.6,21.9,30.45,North,0,0.0,0.0,76,0.00,,,0.00,58.0,meteobridge,2014-12-20 14:41:00,
2014-12-20 09:46:00,28.6,21.9,30.45,North,0,0.0,0.0,76,0.00,,,0.00,56.0,meteobridge,2014-12-20 14:46:00,
2014-12-20 09:51:00,28.6,21.9,30.45,North,355,0.9,2.0,76,0.00,,,0.00,54.0,meteobridge,2014-12-20 14:51:00,
2014-12-20 09:56:00,28.6,22.3,30.45,NNE,12,0.0,4.0,77,0.00,,,0.00,58.0,meteobridge,2014-12-20 14:56:00,
2014-12-20 10:01:00,28.6,22.3,30.45,NNE,15,2.9,3.0,77,0.00,,,0.00,76.0,meteobridge,2014-12-20 15:01:00,
2014-12-20 10:06:00,28.6,22.6,30.45,North,11,0.0,0.0,78,0.00,,,0.00,97.0,meteobridge,2014-12-20 15:06:00,
2014-12-20 10:12:00,28.6,22.6,30.45,North,355,0.0,3.0,78,0.00,,,0.00,105.0,meteobridge,2014-12-20 15:12:00,
2014-12-20 10:17:00,28.8,22.5,30.45,North,355,0.0,4.0,77,0.00,,,0.00,84.0,meteobridge,2014-12-20 15:17:00,
2014-12-20 10:22:00,28.8,22.8,30.45,North,10,0.0,3.0,78,0.00,,,0.00,91.0,meteobridge,2014-12-20 15:22:00,
2014-12-20 10:27:00,28.8,22.8,30.44,North,9,0.0,0.0,78,0.00,,,0.00,98.0,meteobridge,2014-12-20 15:27:00,
2014-12-20 10:32:00,28.8,22.5,30.44,NNW,346,0.0,4.0,77,0.00,,,0.00,102.0,meteobridge,2014-12-20 15:32:00,
2014-12-20 10:37:00,28.9,22.6,30.45,North,5,0.0,2.0,77,0.00,,,0.00,86.0,meteobridge,2014-12-20 15:37:00,
2014-12-20 10:43:00,28.9,22.6,30.45,North,5,0.0,0.0,77,0.00,,,0.00,102.0,meteobridge,2014-12-20 15:43:00,
2014-12-20 10:48:00,28.9,22.6,30.45,North,5,0.0,0.0,77,0.00,,,0.00,98.0,meteobridge,2014-12-20 15:48:00,
2014-12-20 10:53:00,28.9,22.6,30.45,North,5,0.0,0.0,77,0.00,,,0.00,98.0,meteobridge,2014-12-20 15:53:00,
2014-12-20 10:58:00,28.9,22.6,30.44,North,5,0.0,4.0,77,0.00,,,0.00,97.0,meteobridge,2014-12-20 15:58:00,
2014-12-20 11:03:00,29.1,22.8,30.44,North,0,0.0,5.0,77,0.00,,,0.00,105.0,meteobridge,2014-12-20 16:03:00,
2014-12-20 11:08:00,29.1,22.8,30.44,North,0,0.0,0.0,77,0.00,,,0.00,116.0,meteobridge,2014-12-20 16:08:00,
2014-12-20 11:13:00,29.1,22.8,30.44,North,0,0.0,5.0,77,0.00,,,0.00,125.0,meteobridge,2014-12-20 16:13:00,
2014-12-20 11:18:00,29.1,22.8,30.43,North,355,0.0,0.0,77,0.00,,,0.00,139.0,meteobridge,2014-12-20 16:18:00,
2014-12-20 11:23:00,29.1,22.5,30.43,North,351,0.0,0.0,76,0.00,,,0.00,163.0,meteobridge,2014-12-20 16:23:00,
2014-12-20 11:28:00,29.5,23.2,30.43,NNW,346,0.0,1.0,77,0.00,,,0.00,176.0,meteobridge,2014-12-20 16:28:00,
2014-12-20 11:33:00,29.7,23.0,30.42,NNW,340,4.0,4.0,76,0.00,,,0.00,237.0,meteobridge,2014-12-20 16:33:00,
2014-12-20 11:38:00,29.7,23.0,30.42,NW,314,0.0,4.0,76,0.00,,,0.00,202.0,meteobridge,2014-12-20 16:38:00,
2014-12-20 11:43:00,29.8,23.2,30.42,North,350,2.9,5.0,76,0.00,,,0.00,176.0,meteobridge,2014-12-20 16:43:00,
2014-12-20 11:48:00,29.8,22.8,30.41,NNW,339,2.0,5.0,75,0.00,,,0.00,121.0,meteobridge,2014-12-20 16:48:00,
2014-12-20 11:53:00,29.7,23.0,30.42,NNW,344,0.0,3.0,76,0.00,,,0.00,111.0,meteobridge,2014-12-20 16:53:00,
2014-12-20 11:58:00,29.5,22.8,30.41,NNW,348,4.9,5.0,76,0.00,,,0.00,171.0,meteobridge,2014-12-20 16:58:00,
2014-12-20 12:03:00,29.7,23.0,30.40,NW,323,0.0,5.0,76,0.00,,,0.00,225.0,meteobridge,2014-12-20 17:03:00,
2014-12-20 12:08:00,29.8,23.5,30.40,NNW,333,0.9,3.0,77,0.00,,,0.00,241.0,meteobridge,2014-12-20 17:08:00,
2014-12-20 12:13:00,30.0,23.4,30.41,North,5,2.0,6.0,76,0.00,,,0.00,211.0,meteobridge,2014-12-20 17:13:00,
2014-12-20 12:19:00,30.0,23.0,30.41,North,5,0.0,0.0,75,0.00,,,0.00,158.0,meteobridge,2014-12-20 17:19:00,
2014-12-20 12:24:00,30.2,23.5,30.41,North,5,0.0,0.0,76,0.00,,,0.00,149.0,meteobridge,2014-12-20 17:24:00,
2014-12-20 12:29:00,30.4,23.2,30.41,NNW,336,0.0,0.0,74,0.00,,,0.00,163.0,meteobridge,2014-12-20 17:29:00,
2014-12-20 12:34:00,30.4,23.2,30.41,NNW,336,0.0,0.0,74,0.00,,,0.00,172.0,meteobridge,2014-12-20 17:34:00,
2014-12-20 12:39:00,30.2,23.0,30.41,NNW,331,4.0,4.0,74,0.00,,,0.00,137.0,meteobridge,2014-12-20 17:39:00,
2014-12-20 12:44:00,30.4,23.4,30.41,NNW,331,0.0,0.0,75,0.00,,,0.00,135.0,meteobridge,2014-12-20 17:44:00,
2014-12-20 12:49:00,30.6,23.2,30.40,NNW,331,0.0,0.0,74,0.00,,,0.00,118.0,meteobridge,2014-12-20 17:49:00,
2014-12-20 12:54:00,30.6,23.0,30.41,NNW,331,0.0,0.0,73,0.00,,,0.00,93.0,meteobridge,2014-12-20 17:54:00,
2014-12-20 12:59:00,30.7,23.4,30.41,NNW,331,0.0,0.0,74,0.00,,,0.00,84.0,meteobridge,2014-12-20 17:59:00,
2014-12-20 13:04:00,30.7,23.2,30.41,NNW,331,0.0,0.0,73,0.00,,,0.00,100.0,meteobridge,2014-12-20 18:04:00,
2014-12-20 13:10:00,30.6,23.0,30.41,NNW,331,0.0,0.0,73,0.00,,,0.00,123.0,meteobridge,2014-12-20 18:10:00,
2014-12-20 13:15:00,30.6,23.0,30.41,North,0,0.0,6.0,73,0.00,,,0.00,146.0,meteobridge,2014-12-20 18:15:00,
2014-12-20 13:20:00,30.6,23.0,30.41,North,0,0.0,3.0,73,0.00,,,0.00,148.0,meteobridge,2014-12-20 18:20:00,
2014-12-20 13:25:00,30.6,23.0,30.41,North,0,0.0,0.0,73,0.00,,,0.00,200.0,meteobridge,2014-12-20 18:25:00,
2014-12-20 13:30:00,30.7,23.2,30.41,North,0,0.0,0.0,73,0.00,,,0.00,200.0,meteobridge,2014-12-20 18:30:00,
2014-12-20 13:36:00,30.7,23.2,30.41,North,0,0.0,0.0,73,0.00,,,0.00,153.0,meteobridge,2014-12-20 18:36:00,
2014-12-20 13:41:00,30.7,23.2,30.41,North,0,0.0,0.0,73,0.00,,,0.00,105.0,meteobridge,2014-12-20 18:41:00,
2014-12-20 13:46:00,30.7,23.2,30.41,North,0,0.0,0.0,73,0.00,,,0.00,79.0,meteobridge,2014-12-20 18:46:00,
2014-12-20 13:51:00,30.7,23.2,30.40,North,0,0.0,0.0,73,0.00,,,0.00,79.0,meteobridge,2014-12-20 18:51:00,
2014-12-20 13:56:00,30.6,23.0,30.40,North,0,0.0,0.0,73,0.00,,,0.00,81.0,meteobridge,2014-12-20 18:56:00,
2014-12-20 14:01:00,30.6,23.0,30.40,North,0,0.0,0.0,73,0.00,,,0.00,60.0,meteobridge,2014-12-20 19:01:00,
2014-12-20 14:06:00,30.6,23.0,30.40,North,0,0.0,0.0,73,0.00,,,0.00,76.0,meteobridge,2014-12-20 19:06:00,
2014-12-20 14:11:00,30.6,23.0,30.40,North,0,0.0,0.0,73,0.00,,,0.00,62.0,meteobridge,2014-12-20 19:11:00,
2014-12-20 14:16:00,30.6,23.0,30.40,North,0,0.0,0.0,73,0.00,,,0.00,54.0,meteobridge,2014-12-20 19:16:00,
2014-12-20 14:21:00,30.4,22.8,30.40,North,0,0.0,0.0,73,0.00,,,0.00,62.0,meteobridge,2014-12-20 19:21:00,
2014-12-20 14:26:00,30.4,22.8,30.40,North,0,0.0,0.0,73,0.00,,,0.00,54.0,meteobridge,2014-12-20 19:26:00,
2014-12-20 14:32:00,30.4,23.2,30.40,North,0,0.0,0.0,74,0.00,,,0.00,46.0,meteobridge,2014-12-20 19:32:00,
2014-12-20 14:37:00,30.4,23.2,30.40,North,0,0.0,0.0,74,0.00,,,0.00,54.0,meteobridge,2014-12-20 19:37:00,
2014-12-20 14:42:00,30.4,23.2,30.40,North,0,0.0,0.0,74,0.00,,,0.00,40.0,meteobridge,2014-12-20 19:42:00,
2014-12-20 14:47:00,30.4,23.2,30.40,North,0,0.0,0.0,74,0.00,,,0.00,21.0,meteobridge,2014-12-20 19:47:00,
2014-12-20 14:52:00,30.4,23.2,30.40,North,0,0.0,0.0,74,0.00,,,0.00,18.0,meteobridge,2014-12-20 19:52:00,
2014-12-20 14:58:00,30.2,23.0,30.40,North,0,0.0,0.0,74,0.00,,,0.00,18.0,meteobridge,2014-12-20 19:58:00,
2014-12-20 15:03:00,30.2,23.0,30.40,North,0,0.0,0.0,74,0.00,,,0.00,18.0,meteobridge,2014-12-20 20:03:00,
2014-12-20 15:08:00,30.0,23.0,30.40,North,0,0.0,0.0,75,0.00,,,0.00,16.0,meteobridge,2014-12-20 20:08:00,
2014-12-20 15:13:00,30.0,22.8,30.40,North,0,0.0,0.0,74,0.00,,,0.00,18.0,meteobridge,2014-12-20 20:13:00,
2014-12-20 15:18:00,30.0,23.0,30.40,North,0,0.0,0.0,75,0.00,,,0.00,26.0,meteobridge,2014-12-20 20:18:00,
2014-12-20 15:23:00,30.0,23.0,30.40,North,0,0.0,0.0,75,0.00,,,0.00,26.0,meteobridge,2014-12-20 20:23:00,
2014-12-20 15:28:00,30.2,23.2,30.41,North,0,0.0,0.0,75,0.00,,,0.00,23.0,meteobridge,2014-12-20 20:28:00,
2014-12-20 15:33:00,30.2,23.2,30.41,North,0,0.0,0.0,75,0.00,,,0.00,23.0,meteobridge,2014-12-20 20:33:00,
2014-12-20 15:38:00,30.2,23.2,30.41,North,0,0.0,0.0,75,0.00,,,0.00,19.0,meteobridge,2014-12-20 20:38:00,
2014-12-20 15:43:00,30.2,23.2,30.41,North,0,0.0,0.0,75,0.00,,,0.00,18.0,meteobridge,2014-12-20 20:43:00,
2014-12-20 15:48:00,30.0,23.4,30.41,North,0,0.0,0.0,76,0.00,,,0.00,16.0,meteobridge,2014-12-20 20:48:00,
2014-12-20 15:54:00,30.0,23.4,30.41,North,0,0.0,0.0,76,0.00,,,0.00,12.0,meteobridge,2014-12-20 20:54:00,
2014-12-20 15:59:00,30.0,23.4,30.41,North,0,0.0,0.0,76,0.00,,,0.00,11.0,meteobridge,2014-12-20 20:59:00,
2014-12-20 16:04:00,30.0,23.0,30.41,North,0,0.0,0.0,75,0.00,,,0.00,9.0,meteobridge,2014-12-20 21:04:00,
2014-12-20 16:09:00,30.0,23.4,30.41,North,0,0.0,0.0,76,0.00,,,0.00,9.0,meteobridge,2014-12-20 21:09:00,
2014-12-20 16:14:00,30.0,23.4,30.41,North,0,0.0,0.0,76,0.00,,,0.00,7.0,meteobridge,2014-12-20 21:14:00,
2014-12-20 16:20:00,30.0,23.4,30.41,North,0,0.0,0.0,76,0.00,,,0.00,7.0,meteobridge,2014-12-20 21:20:00,
2014-12-20 16:25:00,30.0,23.4,30.41,North,0,0.0,0.0,76,0.00,,,0.00,5.0,meteobridge,2014-12-20 21:25:00,
2014-12-20 16:30:00,29.8,23.2,30.41,North,0,0.0,0.0,76,0.00,,,0.00,0.0,meteobridge,2014-12-20 21:30:00,
2014-12-20 16:35:00,29.8,23.2,30.41,North,0,0.0,0.0,76,0.00,,,0.00,0.0,meteobridge,2014-12-20 21:35:00,
2014-12-20 16:40:00,29.8,23.2,30.41,North,0,0.0,0.0,76,0.00,,,0.00,0.0,meteobridge,2014-12-20 21:40:00,
2014-12-20 16:46:00,29.8,23.5,30.41,North,0,0.0,0.0,77,0.00,,,0.00,0.0,meteobridge,2014-12-20 21:46:00,
2014-12-20 16:51:00,29.8,23.2,30.42,North,0,0.0,0.0,76,0.00,,,0.00,0.0,meteobridge,2014-12-20 21:51:00,
2014-12-20 16:56:00,29.8,23.2,30.42,North,0,0.0,0.0,76,0.00,,,0.00,0.0,meteobridge,2014-12-20 21:56:00,
2014-12-20 17:01:00,29.8,23.5,30.42,North,0,0.0,0.0,77,0.00,,,0.00,0.0,meteobridge,2014-12-20 22:01:00,
2014-12-20 17:06:00,29.8,23.5,30.42,North,0,0.0,0.0,77,0.00,,,0.00,0.0,meteobridge,2014-12-20 22:06:00,
2014-12-20 17:11:00,29.8,23.5,30.42,North,0,0.0,0.0,77,0.00,,,0.00,0.0,meteobridge,2014-12-20 22:11:00,
2014-12-20 17:16:00,29.7,23.4,30.42,North,0,0.0,0.0,77,0.00,,,0.00,0.0,meteobridge,2014-12-20 22:16:00,
2014-12-20 17:21:00,29.7,23.4,30.42,North,0,0.0,0.0,77,0.00,,,0.00,0.0,meteobridge,2014-12-20 22:21:00,
2014-12-20 17:26:00,29.7,23.4,30.42,North,0,0.0,0.0,77,0.00,,,0.00,0.0,meteobridge,2014-12-20 22:26:00,
2014-12-20 17:32:00,29.7,23.4,30.42,North,0,0.0,0.0,77,0.00,,,0.00,0.0,meteobridge,2014-12-20 22:32:00,
2014-12-20 17:37:00,29.7,23.4,30.42,North,0,0.0,0.0,77,0.00,,,0.00,0.0,meteobridge,2014-12-20 22:37:00,
2014-12-20 17:42:00,29.7,23.4,30.42,North,0,0.0,0.0,77,0.00,,,0.00,0.0,meteobridge,2014-12-20 22:42:00,
2014-12-20 17:47:00,29.7,23.4,30.42,North,0,0.0,0.0,77,0.00,,,0.00,0.0,meteobridge,2014-12-20 22:47:00,
2014-12-20 17:52:00,29.7,23.4,30.42,North,0,0.0,0.0,77,0.00,,,0.00,0.0,meteobridge,2014-12-20 22:52:00,
2014-12-20 17:57:00,29.7,23.4,30.43,North,0,0.0,0.0,77,0.00,,,0.00,0.0,meteobridge,2014-12-20 22:57:00,
2014-12-20 18:02:00,29.7,23.4,30.42,North,0,0.0,0.0,77,0.00,,,0.00,0.0,meteobridge,2014-12-20 23:02:00,
2014-12-20 18:07:00,29.7,23.7,30.43,North,0,0.0,0.0,78,0.00,,,0.00,0.0,meteobridge,2014-12-20 23:07:00,
2014-12-20 18:12:00,29.5,23.5,30.42,North,0,0.0,0.0,78,0.00,,,0.00,0.0,meteobridge,2014-12-20 23:12:00,
2014-12-20 18:17:00,29.5,23.5,30.43,North,0,0.0,0.0,78,0.00,,,0.00,0.0,meteobridge,2014-12-20 23:17:00,
2014-12-20 18:23:00,29.5,23.5,30.43,North,0,0.0,0.0,78,0.00,,,0.00,0.0,meteobridge,2014-12-20 23:23:00,
2014-12-20 18:28:00,29.5,23.5,30.43,North,0,0.0,0.0,78,0.00,,,0.00,0.0,meteobridge,2014-12-20 23:28:00,
2014-12-20 18:33:00,29.5,23.5,30.43,North,0,0.0,0.0,78,0.00,,,0.00,0.0,meteobridge,2014-12-20 23:33:00,
2014-12-20 18:38:00,29.5,23.7,30.44,North,0,0.0,0.0,79,0.00,,,0.00,0.0,meteobridge,2014-12-20 23:38:00,
2014-12-20 18:43:00,29.5,23.7,30.44,North,0,0.0,0.0,79,0.00,,,0.00,0.0,meteobridge,2014-12-20 23:43:00,
2014-12-20 18:48:00,29.5,23.7,30.43,North,0,0.0,0.0,79,0.00,,,0.00,0.0,meteobridge,2014-12-20 23:48:00,
2014-12-20 18:54:00,29.5,23.7,30.43,North,0,0.0,0.0,79,0.00,,,0.00,0.0,meteobridge,2014-12-20 23:54:00,
2014-12-20 18:59:00,29.5,23.7,30.43,North,0,0.0,0.0,79,0.00,,,0.00,0.0,meteobridge,2014-12-20 23:59:00,
2014-12-20 19:04:00,29.5,23.7,30.43,North,0,0.0,0.0,79,0.00,,,0.00,0.0,meteobridge,2014-12-21 00:04:00,
2014-12-20 19:09:00,29.5,23.7,30.43,North,0,0.0,0.0,79,0.00,,,0.00,0.0,meteobridge,2014-12-21 00:09:00,
2014-12-20 19:14:00,29.3,23.5,30.43,North,0,0.0,0.0,79,0.00,,,0.00,0.0,meteobridge,2014-12-21 00:14:00,
2014-12-20 19:19:00,29.3,23.5,30.43,North,0,0.0,0.0,79,0.00,,,0.00,0.0,meteobridge,2014-12-21 00:19:00,
2014-12-20 19:24:00,29.3,23.9,30.43,North,0,0.0,0.0,80,0.00,,,0.00,0.0,meteobridge,2014-12-21 00:24:00,
2014-12-20 19:29:00,29.3,23.5,30.43,North,0,0.0,0.0,79,0.00,,,0.00,0.0,meteobridge,2014-12-21 00:29:00,
2014-12-20 19:34:00,29.3,23.9,30.43,North,0,0.0,0.0,80,0.00,,,0.00,0.0,meteobridge,2014-12-21 00:34:00,
2014-12-20 19:39:00,29.3,23.9,30.43,North,0,0.0,0.0,80,0.00,,,0.00,0.0,meteobridge,2014-12-21 00:39:00,
2014-12-20 19:45:00,29.3,23.9,30.43,North,0,0.0,0.0,80,0.00,,,0.00,0.0,meteobridge,2014-12-21 00:45:00,
2014-12-20 19:50:00,29.3,23.9,30.43,North,0,0.0,0.0,80,0.00,,,0.00,0.0,meteobridge,2014-12-21 00:50:00,
2014-12-20 19:55:00,29.3,23.9,30.44,North,0,0.0,0.0,80,0.00,,,0.00,0.0,meteobridge,2014-12-21 00:55:00,
2014-12-20 20:00:00,29.3,23.9,30.43,North,0,0.0,0.0,80,0.00,,,0.00,0.0,meteobridge,2014-12-21 01:00:00,
2014-12-20 20:05:00,29.1,23.7,30.44,North,0,0.0,0.0,80,0.00,,,0.00,0.0,meteobridge,2014-12-21 01:05:00,
2014-12-20 20:11:00,29.1,23.7,30.44,North,0,0.0,0.0,80,0.00,,,0.00,0.0,meteobridge,2014-12-21 01:11:00,
2014-12-20 20:16:00,29.1,23.7,30.44,North,0,0.0,0.0,80,0.00,,,0.00,0.0,meteobridge,2014-12-21 01:16:00,
2014-12-20 20:21:00,29.1,24.1,30.44,North,0,0.0,0.0,81,0.00,,,0.00,0.0,meteobridge,2014-12-21 01:21:00,
2014-12-20 20:26:00,29.1,24.1,30.43,North,0,0.0,0.0,81,0.00,,,0.00,0.0,meteobridge,2014-12-21 01:26:00,
2014-12-20 20:31:00,29.1,24.1,30.43,North,0,0.0,0.0,81,0.00,,,0.00,0.0,meteobridge,2014-12-21 01:31:00,
2014-12-20 20:36:00,29.1,24.1,30.44,North,0,0.0,0.0,81,0.00,,,0.00,0.0,meteobridge,2014-12-21 01:36:00,
2014-12-20 20:41:00,29.1,24.1,30.44,North,0,0.0,0.0,81,0.00,,,0.00,0.0,meteobridge,2014-12-21 01:41:00,
2014-12-20 20:47:00,29.1,24.1,30.44,North,0,0.0,0.0,81,0.00,,,0.00,0.0,meteobridge,2014-12-21 01:47:00,
2014-12-20 20:52:00,29.1,24.1,30.44,North,0,0.0,0.0,81,0.00,,,0.00,0.0,meteobridge,2014-12-21 01:52:00,
2014-12-20 20:57:00,29.1,24.1,30.44,North,0,0.0,0.0,81,0.00,,,0.00,0.0,meteobridge,2014-12-21 01:57:00,
2014-12-20 21:02:00,29.1,24.1,30.44,North,0,0.0,0.0,81,0.00,,,0.00,0.0,meteobridge,2014-12-21 02:02:00,
2014-12-20 21:07:00,29.1,24.1,30.44,North,0,0.0,0.0,81,0.00,,,0.00,0.0,meteobridge,2014-12-21 02:07:00,
2014-12-20 21:12:00,29.1,24.1,30.43,North,0,0.0,0.0,81,0.00,,,0.00,0.0,meteobridge,2014-12-21 02:12:00,
2014-12-20 21:17:00,29.1,24.1,30.43,North,0,0.0,0.0,81,0.00,,,0.00,0.0,meteobridge,2014-12-21 02:17:00,
2014-12-20 21:22:00,29.1,24.1,30.43,North,0,0.0,0.0,81,0.00,,,0.00,0.0,meteobridge,2014-12-21 02:22:00,
2014-12-20 21:28:00,29.1,24.1,30.43,North,0,0.0,0.0,81,0.00,,,0.00,0.0,meteobridge,2014-12-21 02:28:00,
2014-12-20 21:33:00,29.1,24.1,30.43,North,0,0.0,0.0,81,0.00,,,0.00,0.0,meteobridge,2014-12-21 02:33:00,
2014-12-20 21:38:00,29.1,24.1,30.43,North,0,0.0,0.0,81,0.00,,,0.00,0.0,meteobridge,2014-12-21 02:38:00,
2014-12-20 21:43:00,29.1,24.1,30.43,North,5,0.0,0.0,81,0.00,,,0.00,0.0,meteobridge,2014-12-21 02:43:00,
2014-12-20 21:48:00,29.1,24.1,30.43,North,5,0.0,0.0,81,0.00,,,0.00,0.0,meteobridge,2014-12-21 02:48:00,
2014-12-20 21:53:00,29.1,24.1,30.43,North,5,0.0,0.0,81,0.00,,,0.00,0.0,meteobridge,2014-12-21 02:53:00,
2014-12-20 21:58:00,29.1,24.1,30.43,North,5,0.0,0.0,81,0.00,,,0.00,0.0,meteobridge,2014-12-21 02:58:00,
2014-12-20 22:03:00,29.1,24.1,30.43,North,5,0.0,0.0,81,0.00,,,0.00,0.0,meteobridge,2014-12-21 03:03:00,
2014-12-20 22:08:00,29.1,24.1,30.44,North,5,0.0,0.0,81,0.00,,,0.00,0.0,meteobridge,2014-12-21 03:08:00,
2014-12-20 22:14:00,28.9,23.9,30.44,North,5,0.0,0.0,81,0.00,,,0.00,0.0,meteobridge,2014-12-21 03:14:00,
2014-12-20 22:19:00,28.9,23.9,30.44,North,5,0.0,0.0,81,0.00,,,0.00,0.0,meteobridge,2014-12-21 03:19:00,
2014-12-20 22:24:00,28.9,23.9,30.44,North,5,0.0,0.0,81,0.00,,,0.00,0.0,meteobridge,2014-12-21 03:24:00,
2014-12-20 22:29:00,28.9,23.5,30.44,North,5,0.0,0.0,80,0.00,,,0.00,0.0,meteobridge,2014-12-21 03:29:00,
2014-12-20 22:34:00,28.8,23.4,30.44,North,5,0.0,0.0,80,0.00,,,0.00,0.0,meteobridge,2014-12-21 03:34:00,
2014-12-20 22:40:00,28.8,23.4,30.44,North,5,0.0,0.0,80,0.00,,,0.00,0.0,meteobridge,2014-12-21 03:40:00,
2014-12-20 22:45:00,28.8,23.4,30.44,North,5,0.0,0.0,80,0.00,,,0.00,0.0,meteobridge,2014-12-21 03:45:00,
2014-12-20 22:50:00,28.8,23.4,30.44,North,5,0.0,0.0,80,0.00,,,0.00,0.0,meteobridge,2014-12-21 03:50:00,
2014-12-20 22:55:00,28.6,23.2,30.44,North,5,0.0,0.0,80,0.00,,,0.00,0.0,meteobridge,2014-12-21 03:55:00,
2014-12-20 23:00:00,28.6,23.2,30.44,North,5,0.0,0.0,80,0.00,,,0.00,0.0,meteobridge,2014-12-21 04:00:00,
2014-12-20 23:05:00,28.6,23.2,30.45,North,5,0.0,0.0,80,0.00,,,0.00,0.0,meteobridge,2014-12-21 04:05:00,
2014-12-20 23:10:00,28.6,23.2,30.45,North,5,0.0,0.0,80,0.00,,,0.00,0.0,meteobridge,2014-12-21 04:10:00,
2014-12-20 23:15:00,28.6,23.2,30.45,North,5,0.0,0.0,80,0.00,,,0.00,0.0,meteobridge,2014-12-21 04:15:00,
2014-12-20 23:20:00,28.6,23.2,30.45,North,5,0.0,0.0,80,0.00,,,0.00,0.0,meteobridge,2014-12-21 04:20:00,
2014-12-20 23:25:00,28.6,23.2,30.45,North,5,0.0,0.0,80,0.00,,,0.00,0.0,meteobridge,2014-12-21 04:25:00,
2014-12-20 23:30:00,28.4,23.0,30.45,North,5,0.0,0.0,80,0.00,,,0.00,0.0,meteobridge,2014-12-21 04:30:00,
2014-12-20 23:36:00,28.4,23.0,30.44,North,5,0.0,0.0,80,0.00,,,0.00,0.0,meteobridge,2014-12-21 04:36:00,
2014-12-20 23:41:00,28.4,22.6,30.44,North,5,0.0,0.0,79,0.00,,,0.00,0.0,meteobridge,2014-12-21 04:41:00,
2014-12-20 23:46:00,28.4,23.0,30.44,North,5,0.0,0.0,80,0.00,,,0.00,0.0,meteobridge,2014-12-21 04:46:00,